Time;durP1;ratioP1;P1;durP2;ratioP2;P2;SDS_P1;SDS_P2;PMS_P1;PMS_P2;Temp;Humidity;BMP_temperature;BMP_pressure;BME280_temperature;BME280_humidity;BME280_pressure;Samples;Min_cycle;Max_cycle;Signal;HPM_P1;HPM_P2
2023/12/21 04:02:39;;;;;;;0.10;0.10;;;23.90;29.10;;;;;;5022284;22;45503;-86
2023/12/21 04:05:07;;;;;;;0.30;0.10;;;23.90;29.20;;;;;;5011478;28;44761;-92
2023/12/21 04:07:33;;;;;;;0.90;0.10;;;23.90;29.10;;;;;;5006900;28;46436;-86
2023/12/21 04:10:19;;;;;;;0.22;0.10;;;23.90;29.20;;;;;;4990605;28;44756;-81
2023/12/21 04:12:50;;;;;;;0.03;0.03;;;23.90;29.20;;;;;;4988322;28;45202;-83
2023/12/21 04:15:19;;;;;;;0.30;0.20;;;23.90;29.20;;;;;;4987530;28;45308;-80
2023/12/21 04:17:53;;;;;;;0.10;0.10;;;23.90;29.20;;;;;;5016568;28;45424;-84
2023/12/21 04:20:23;;;;;;;0.60;0.23;;;23.90;29.20;;;;;;4975729;28;45364;-83
2023/12/21 04:22:49;;;;;;;0.30;0.20;;;23.90;29.20;;;;;;4969310;28;45248;-80
2023/12/21 04:25:16;;;;;;;0.20;0.10;;;23.90;29.20;;;;;;5000809;28;45655;-81
2023/12/21 04:27:51;;;;;;;0.10;0.10;;;23.90;29.30;;;;;;5005380;28;47082;-84
2023/12/21 04:30:19;;;;;;;0.30;0.10;;;23.90;29.20;;;;;;4966928;28;45182;-87
2023/12/21 04:32:58;;;;;;;0.10;0.10;;;23.90;29.20;;;;;;4976173;28;44684;-80
2023/12/21 04:35:29;;;;;;;0.10;0.10;;;23.90;29.20;;;;;;5006802;28;45230;-95
2023/12/21 04:37:55;;;;;;;0.10;0.10;;;23.90;29.30;;;;;;4975563;28;46425;-85
2023/12/21 04:40:21;;;;;;;0.30;0.10;;;23.90;29.30;;;;;;4997240;28;45252;-82
2023/12/21 04:42:52;;;;;;;0.20;0.10;;;23.90;29.30;;;;;;4972210;28;45350;-85
2023/12/21 04:45:21;;;;;;;0.00;0.00;;;23.90;29.30;;;;;;4986991;28;45261;-88
2023/12/21 04:47:50;;;;;;;0.28;0.10;;;23.90;29.30;;;;;;4986649;28;46619;-86
2023/12/21 04:50:22;;;;;;;0.20;0.10;;;23.90;29.30;;;;;;4971492;28;44902;-81
2023/12/21 04:52:49;;;;;;;0.10;0.10;;;23.90;29.30;;;;;;5002894;28;45169;-81
2023/12/21 04:55:16;;;;;;;0.00;0.00;;;23.80;29.30;;;;;;5002183;28;45415;-86
2023/12/21 04:57:42;;;;;;;0.60;0.10;;;23.90;29.40;;;;;;5002570;28;45516;-82
2023/12/21 05:00:08;;;;;;;0.20;0.10;;;23.80;29.30;;;;;;5007263;28;45394;-87
2023/12/21 07:20:25;;;;;;;0.32;0.20;;;23.50;30.00;;;;;;4989372;28;45297;-80
2023/12/21 07:22:51;;;;;;;0.20;0.10;;;23.50;30.00;;;;;;4919116;28;45085;-45
2023/12/21 07:25:17;;;;;;;0.20;0.10;;;23.50;30.00;;;;;;4910660;28;45609;-45
2023/12/21 07:27:43;;;;;;;0.10;0.10;;;23.50;30.00;;;;;;4934797;28;45844;-43
2023/12/21 07:30:09;;;;;;;0.30;0.10;;;23.50;30.00;;;;;;4935427;28;45472;-46
2023/12/21 07:32:34;;;;;;;0.50;0.20;;;23.50;30.00;;;;;;4928838;28;45472;-43
2023/12/21 07:35:00;;;;;;;0.50;0.20;;;23.50;30.00;;;;;;4938127;28;45263;-42
2023/12/21 07:37:26;;;;;;;0.70;0.10;;;23.50;30.00;;;;;;4923427;28;45306;-43
2023/12/21 07:39:51;;;;;;;0.70;0.20;;;23.50;30.10;;;;;;4937977;28;45266;-43
2023/12/21 07:42:20;;;;;;;1.10;0.20;;;23.40;30.00;;;;;;4912305;28;45307;-44
2023/12/21 07:44:45;;;;;;;0.60;0.20;;;23.40;30.00;;;;;;4916563;28;45667;-42
2023/12/21 07:47:11;;;;;;;0.30;0.10;;;23.40;30.10;;;;;;4912250;28;45589;-46
2023/12/21 07:49:37;;;;;;;0.20;0.20;;;23.40;30.10;;;;;;4927656;28;45637;-43
2023/12/21 07:52:02;;;;;;;0.20;0.20;;;23.40;30.10;;;;;;4926071;28;45952;-42
2023/12/21 07:54:28;;;;;;;0.20;0.10;;;23.40;30.20;;;;;;4936993;28;46081;-44
2023/12/21 07:56:54;;;;;;;0.20;0.10;;;23.40;30.20;;;;;;4925347;28;46061;-43
2023/12/21 07:59:19;;;;;;;0.00;0.00;;;23.40;30.20;;;;;;4906266;28;45409;-44
2023/12/21 08:01:46;;;;;;;0.75;0.20;;;23.40;30.20;;;;;;4890228;28;45537;-42
2023/12/21 08:04:11;;;;;;;0.28;0.10;;;23.40;30.20;;;;;;4931042;28;45514;-42
2023/12/21 08:06:37;;;;;;;0.20;0.10;;;23.40;30.20;;;;;;4924304;28;46162;-44
2023/12/21 08:09:02;;;;;;;1.30;0.10;;;23.40;30.20;;;;;;4926622;28;45213;-44
2023/12/21 08:11:28;;;;;;;0.28;0.10;;;23.40;30.30;;;;;;4923102;28;46044;-41
2023/12/21 08:13:54;;;;;;;0.30;0.10;;;23.40;30.30;;;;;;4918680;28;45525;-41
2023/12/21 08:16:19;;;;;;;0.57;0.20;;;23.40;30.30;;;;;;4902429;28;46300;-42
2023/12/21 08:18:45;;;;;;;0.40;0.20;;;23.40;30.30;;;;;;4922432;28;45011;-42
2023/12/21 08:21:11;;;;;;;0.40;0.27;;;23.40;30.30;;;;;;4901663;28;44964;-44
2023/12/21 08:23:37;;;;;;;0.28;0.10;;;23.30;30.30;;;;;;4919371;28;46400;-43
2023/12/21 08:26:03;;;;;;;0.40;0.10;;;23.30;30.30;;;;;;4880959;28;46136;-44
2023/12/21 08:28:30;;;;;;;0.40;0.20;;;23.40;30.40;;;;;;4912562;28;45342;-42
2023/12/21 08:30:56;;;;;;;0.57;0.20;;;23.30;30.40;;;;;;4911362;28;45704;-43
2023/12/21 08:33:22;;;;;;;1.00;0.30;;;23.30;30.40;;;;;;4910437;28;45731;-43
2023/12/21 08:35:47;;;;;;;1.00;0.20;;;23.30;30.40;;;;;;4907715;28;45482;-41
2023/12/21 08:38:13;;;;;;;0.63;0.20;;;23.30;30.40;;;;;;4914334;28;46592;-43
2023/12/21 08:40:39;;;;;;;0.70;0.30;;;23.30;30.50;;;;;;4906505;28;46028;-42
2023/12/21 08:43:04;;;;;;;0.80;0.30;;;23.30;30.50;;;;;;4899510;28;44838;-44
2023/12/21 08:45:30;;;;;;;0.50;0.30;;;23.30;30.50;;;;;;4905407;28;45604;-44
2023/12/21 08:47:56;;;;;;;0.80;0.30;;;23.30;30.60;;;;;;4914922;28;45297;-42
2023/12/21 08:50:21;;;;;;;1.33;0.50;;;23.30;30.60;;;;;;4908570;28;45267;-42
2023/12/21 08:52:47;;;;;;;0.50;0.30;;;23.30;30.70;;;;;;4906426;28;44848;-42
2023/12/21 08:55:12;;;;;;;0.40;0.30;;;23.20;30.60;;;;;;4916234;28;44914;-42
2023/12/21 08:57:38;;;;;;;0.40;0.28;;;23.20;30.70;;;;;;4888900;28;45361;-43
2023/12/21 09:00:06;;;;;;;0.40;0.27;;;23.30;30.80;;;;;;4898102;28;45534;-43
2023/12/21 09:02:35;;;;;;;0.98;0.30;;;23.20;30.70;;;;;;4891134;28;45391;-43
2023/12/21 09:05:02;;;;;;;0.30;0.20;;;23.20;30.80;;;;;;4919171;28;45491;-43
2023/12/21 09:07:28;;;;;;;0.25;0.17;;;23.20;30.80;;;;;;4891633;28;45172;-42
2023/12/21 09:09:53;;;;;;;0.50;0.40;;;23.20;30.90;;;;;;4918926;28;44652;-40
2023/12/21 09:12:19;;;;;;;0.43;0.20;;;23.20;30.90;;;;;;4909562;28;45377;-39
2023/12/21 09:14:45;;;;;;;0.40;0.20;;;23.10;30.90;;;;;;4907296;28;45364;-39
2023/12/21 09:17:11;;;;;;;0.57;0.20;;;23.10;31.00;;;;;;4885845;28;45587;-38
2023/12/21 09:19:36;;;;;;;0.87;0.50;;;23.10;31.00;;;;;;4904071;28;45725;-40
2023/12/21 09:22:02;;;;;;;0.63;0.30;;;23.10;31.00;;;;;;4925859;28;45272;-39
2023/12/21 09:24:27;;;;;;;0.40;0.20;;;23.10;31.00;;;;;;4933103;28;46078;-40
2023/12/21 09:26:53;;;;;;;0.53;0.20;;;23.10;31.10;;;;;;4940472;28;45368;-40
2023/12/21 09:29:18;;;;;;;0.20;0.20;;;23.10;31.20;;;;;;4935591;28;45609;-38
2023/12/21 09:31:44;;;;;;;0.60;0.30;;;23.10;31.20;;;;;;4892297;28;46045;-40
2023/12/21 09:34:11;;;;;;;0.60;0.23;;;23.10;31.20;;;;;;4931768;28;46185;-39
2023/12/21 09:36:36;;;;;;;0.30;0.20;;;23.10;31.20;;;;;;4931169;28;45627;-39
2023/12/21 09:39:03;;;;;;;0.27;0.20;;;23.10;31.20;;;;;;4933625;28;45050;-39
2023/12/21 09:41:29;;;;;;;0.70;0.30;;;23.00;31.30;;;;;;4923246;28;45644;-39
2023/12/21 09:43:54;;;;;;;0.63;0.30;;;23.00;31.30;;;;;;4938808;28;45965;-38
2023/12/21 09:46:24;;;;;;;0.30;0.30;;;23.00;31.30;;;;;;4908961;28;45774;-39
2023/12/21 09:48:49;;;;;;;0.30;0.23;;;23.00;31.30;;;;;;4916118;28;45356;-39
2023/12/21 09:51:15;;;;;;;0.20;0.20;;;23.00;31.40;;;;;;4921646;28;45931;-38
2023/12/21 09:53:40;;;;;;;0.40;0.30;;;23.00;31.40;;;;;;4932800;28;44852;-40
2023/12/21 09:56:06;;;;;;;0.47;0.20;;;23.00;31.40;;;;;;4911333;28;45428;-39
2023/12/21 09:58:32;;;;;;;0.20;0.20;;;23.00;31.40;;;;;;4916679;28;45337;-39
2023/12/21 10:00:58;;;;;;;0.17;0.10;;;23.00;31.40;;;;;;4924719;28;45635;-40
2023/12/21 10:03:23;;;;;;;0.30;0.20;;;23.00;31.50;;;;;;4901535;28;46248;-39
2023/12/21 10:05:49;;;;;;;0.40;0.20;;;22.90;31.40;;;;;;4921413;28;45667;-39
2023/12/21 10:08:15;;;;;;;0.60;0.27;;;23.00;31.50;;;;;;4932504;28;45753;-39
2023/12/21 10:10:40;;;;;;;0.90;0.20;;;23.00;31.50;;;;;;4929459;28;45744;-40
2023/12/21 10:13:06;;;;;;;0.13;0.13;;;23.00;31.50;;;;;;4923685;28;47163;-39
2023/12/21 10:15:34;;;;;;;0.43;0.30;;;22.90;31.50;;;;;;4918385;28;45156;-39
2023/12/21 10:18:00;;;;;;;0.45;0.20;;;22.90;31.60;;;;;;4936279;28;45444;-39
2023/12/21 10:20:26;;;;;;;0.40;0.20;;;22.90;31.60;;;;;;4904709;28;45726;-39
2023/12/21 10:22:52;;;;;;;0.30;0.15;;;22.90;31.60;;;;;;4935978;28;46450;-39
2023/12/21 10:25:18;;;;;;;0.40;0.20;;;22.90;31.70;;;;;;4908602;28;45126;-39
2023/12/21 10:27:56;;;;;;;0.15;0.10;;;22.90;31.70;;;;;;4935200;28;45525;-40
2023/12/21 10:30:24;;;;;;;0.50;0.22;;;22.90;31.70;;;;;;4917576;28;45240;-39
2023/12/21 10:33:09;;;;;;;0.43;0.20;;;22.90;31.70;;;;;;4928569;28;45788;-39
2023/12/21 10:35:55;;;;;;;0.65;0.20;;;22.90;31.80;;;;;;4898884;28;45884;-39
2023/12/21 10:38:22;;;;;;;0.23;0.10;;;22.90;31.80;;;;;;4902611;28;47712;-38
2023/12/21 10:40:49;;;;;;;0.20;0.13;;;22.80;31.80;;;;;;4926367;28;45468;-39
2023/12/21 10:43:15;;;;;;;0.10;0.10;;;22.80;31.90;;;;;;4934834;28;46324;-39
2023/12/21 10:45:47;;;;;;;0.63;0.20;;;22.80;31.90;;;;;;4914918;28;46871;-38
2023/12/21 10:48:13;;;;;;;0.30;0.20;;;22.80;32.00;;;;;;4915140;28;45509;-38
2023/12/21 10:50:39;;;;;;;0.50;0.20;;;22.80;32.00;;;;;;4923528;28;45759;-40
2023/12/21 10:53:04;;;;;;;0.32;0.20;;;22.80;32.10;;;;;;4938496;28;45784;-38
2023/12/21 10:55:30;;;;;;;0.20;0.20;;;22.80;32.10;;;;;;4903671;28;46007;-39
2023/12/21 10:57:56;;;;;;;0.35;0.10;;;22.80;32.10;;;;;;4936297;28;46201;-39
2023/12/21 11:00:22;;;;;;;0.30;0.10;;;22.70;32.10;;;;;;4913680;28;46905;-39
2023/12/21 11:02:48;;;;;;;0.22;0.10;;;22.70;32.20;;;;;;4923947;28;45137;-40
2023/12/21 11:05:23;;;;;;;0.10;0.10;;;22.70;32.20;;;;;;4913466;28;45178;-39
2023/12/21 11:07:49;;;;;;;0.25;0.20;;;22.70;32.20;;;;;;4928085;28;45490;-39
2023/12/21 11:10:18;;;;;;;0.10;0.10;;;22.70;32.30;;;;;;4923179;28;45280;-39
2023/12/21 11:12:44;;;;;;;0.20;0.10;;;22.70;32.40;;;;;;4911049;28;45275;-39
2023/12/21 11:15:13;;;;;;;0.20;0.10;;;22.70;32.40;;;;;;4927896;28;46106;-38
2023/12/21 11:17:40;;;;;;;0.20;0.10;;;22.70;32.40;;;;;;4905162;28;45749;-40
2023/12/21 11:20:07;;;;;;;0.30;0.17;;;22.70;32.50;;;;;;4928659;28;44950;-41
2023/12/21 11:22:39;;;;;;;0.80;0.20;;;22.70;32.50;;;;;;4914723;28;45700;-43
2023/12/21 11:25:08;;;;;;;0.20;0.10;;;22.70;32.50;;;;;;4932538;28;45639;-45
2023/12/21 11:27:36;;;;;;;0.40;0.08;;;22.60;32.50;;;;;;4910626;28;45432;-41
2023/12/21 11:30:11;;;;;;;0.50;0.10;;;22.60;32.60;;;;;;4927777;28;45525;-43
2023/12/21 11:32:41;;;;;;;0.10;0.10;;;22.60;32.70;;;;;;4922091;28;45049;-44
2023/12/21 11:35:23;;;;;;;0.30;0.10;;;22.60;32.60;;;;;;4918490;28;47389;-46
2023/12/21 11:37:50;;;;;;;0.27;0.10;;;22.60;32.70;;;;;;4930624;28;45415;-43
2023/12/21 11:40:17;;;;;;;0.25;0.10;;;22.60;32.70;;;;;;4901775;28;46994;-42
2023/12/21 11:42:45;;;;;;;0.17;0.17;;;22.60;32.70;;;;;;4913872;28;46097;-43
2023/12/21 11:45:11;;;;;;;0.30;0.10;;;22.60;32.70;;;;;;4903794;28;45232;-44
2023/12/21 11:47:37;;;;;;;0.28;0.10;;;22.60;32.70;;;;;;4921850;28;45872;-42
2023/12/21 11:50:09;;;;;;;0.20;0.20;;;22.60;32.70;;;;;;4924724;28;47146;-45
2023/12/21 11:52:35;;;;;;;0.20;0.10;;;22.60;32.70;;;;;;4926011;28;46151;-42
2023/12/21 11:55:01;;;;;;;0.10;0.10;;;22.60;32.70;;;;;;4908697;28;45419;-44
2023/12/21 11:57:31;;;;;;;0.10;0.10;;;22.60;32.80;;;;;;4897972;28;45477;-46
2023/12/21 12:00:15;;;;;;;0.20;0.20;;;22.60;32.80;;;;;;4908090;28;47032;-41
2023/12/21 12:02:44;;;;;;;0.57;0.20;;;22.60;32.80;;;;;;4907714;28;45320;-44
2023/12/21 12:05:22;;;;;;;0.35;0.17;;;22.60;32.80;;;;;;4907158;28;47204;-43
2023/12/21 12:07:48;;;;;;;0.47;0.20;;;22.50;32.70;;;;;;4929236;28;44933;-43
2023/12/21 12:10:14;;;;;;;0.45;0.20;;;22.50;32.70;;;;;;4923738;28;45712;-42
2023/12/21 12:12:41;;;;;;;0.30;0.10;;;22.50;32.80;;;;;;4927091;28;45741;-42
2023/12/21 12:15:07;;;;;;;0.28;0.17;;;22.50;32.80;;;;;;4891574;28;45603;-44
2023/12/21 12:17:38;;;;;;;0.43;0.10;;;22.50;32.80;;;;;;4911278;28;45359;-43
2023/12/21 12:20:05;;;;;;;0.60;0.30;;;22.50;32.80;;;;;;4932191;28;46233;-46
2023/12/21 12:22:31;;;;;;;0.20;0.13;;;22.50;32.80;;;;;;4909152;28;45888;-43
2023/12/21 12:24:57;;;;;;;0.20;0.20;;;22.50;32.80;;;;;;4926583;28;45781;-43
2023/12/21 12:27:22;;;;;;;0.10;0.10;;;22.50;32.80;;;;;;4902648;28;45660;-43
2023/12/21 12:29:48;;;;;;;0.45;0.20;;;22.50;32.70;;;;;;4924196;28;45587;-42
2023/12/21 12:32:14;;;;;;;0.20;0.20;;;22.50;32.80;;;;;;4872981;28;45232;-42
2023/12/21 12:34:40;;;;;;;0.40;0.20;;;22.50;32.80;;;;;;4917980;28;45448;-43
2023/12/21 12:37:07;;;;;;;0.10;0.10;;;22.50;32.80;;;;;;4902233;28;45270;-43
2023/12/21 12:39:32;;;;;;;0.50;0.20;;;22.50;32.80;;;;;;4906717;28;44991;-44
2023/12/21 12:41:58;;;;;;;0.20;0.17;;;22.50;32.80;;;;;;4917978;28;45573;-42
2023/12/21 12:44:27;;;;;;;0.47;0.20;;;22.50;32.80;;;;;;4903233;28;47849;-43
2023/12/21 12:46:52;;;;;;;0.50;0.20;;;22.50;32.90;;;;;;4917176;28;45564;-42
2023/12/21 12:49:18;;;;;;;0.20;0.10;;;22.50;32.90;;;;;;4904784;28;45672;-43
2023/12/21 12:51:44;;;;;;;0.30;0.20;;;22.50;32.90;;;;;;4905766;28;45446;-42
2023/12/21 12:54:09;;;;;;;0.50;0.30;;;22.50;32.90;;;;;;4917029;28;45388;-43
2023/12/21 12:56:47;;;;;;;0.60;0.20;;;22.50;32.90;;;;;;4910670;28;45764;-43
2023/12/21 12:59:12;;;;;;;0.22;0.10;;;22.50;33.00;;;;;;4923165;28;45378;-43
2023/12/21 13:01:38;;;;;;;0.10;0.10;;;22.40;33.00;;;;;;4913175;28;47642;-43
2023/12/21 13:04:04;;;;;;;0.40;0.10;;;22.40;33.00;;;;;;4912453;28;45802;-42
2023/12/21 13:06:29;;;;;;;0.22;0.20;;;22.40;33.00;;;;;;4923108;28;45477;-44
2023/12/21 13:08:55;;;;;;;0.28;0.20;;;22.40;33.10;;;;;;4926164;28;45227;-43
2023/12/21 13:11:22;;;;;;;0.20;0.10;;;22.40;33.10;;;;;;4916259;28;45323;-41
2023/12/21 13:13:47;;;;;;;0.28;0.20;;;22.40;33.20;;;;;;4907784;28;46238;-43
2023/12/21 13:16:20;;;;;;;0.10;0.10;;;22.40;33.20;;;;;;4904471;28;45727;-39
2023/12/21 13:18:47;;;;;;;0.60;0.10;;;22.40;33.30;;;;;;4905170;28;45469;-38
2023/12/21 13:21:13;;;;;;;0.30;0.10;;;22.40;33.30;;;;;;4899903;28;46261;-39
2023/12/21 13:23:38;;;;;;;0.15;0.10;;;22.40;33.30;;;;;;4924972;28;45649;-38
2023/12/21 13:26:05;;;;;;;0.50;0.20;;;22.30;33.30;;;;;;4907691;28;44737;-40
2023/12/21 13:28:31;;;;;;;0.60;0.20;;;22.30;33.40;;;;;;4928503;28;45531;-38
2023/12/21 13:30:56;;;;;;;1.40;0.20;;;22.30;33.40;;;;;;4924638;28;45684;-39
2023/12/21 13:33:22;;;;;;;0.20;0.10;;;22.30;33.60;;;;;;4928883;28;45468;-40
2023/12/21 13:35:47;;;;;;;0.37;0.10;;;22.30;33.60;;;;;;4882568;28;45541;-40
2023/12/21 13:38:14;;;;;;;0.20;0.10;;;22.30;33.60;;;;;;4924572;28;45498;-39
2023/12/21 13:40:40;;;;;;;0.30;0.13;;;22.30;34.30;;;;;;4903574;28;48557;-38
2023/12/21 13:43:05;;;;;;;0.15;0.10;;;22.30;33.60;;;;;;4923008;28;45455;-40
2023/12/21 13:45:31;;;;;;;0.10;0.10;;;22.30;33.60;;;;;;4910689;28;46901;-44
2023/12/21 13:47:57;;;;;;;0.13;0.10;;;22.30;33.60;;;;;;4921019;28;47021;-43
2023/12/21 13:50:22;;;;;;;0.40;0.10;;;22.30;33.60;;;;;;4917904;28;45255;-42
2023/12/21 13:52:48;;;;;;;0.10;0.10;;;22.30;33.60;;;;;;4906826;28;45426;-42
2023/12/21 13:55:13;;;;;;;0.80;0.20;;;22.30;33.80;;;;;;4914782;28;46967;-45
2023/12/21 13:57:39;;;;;;;0.10;0.10;;;22.30;33.80;;;;;;4911096;28;46877;-46
2023/12/21 14:00:07;;;;;;;0.10;0.08;;;22.30;33.80;;;;;;4891695;28;45742;-47
2023/12/21 14:02:33;;;;;;;0.25;0.10;;;22.30;33.90;;;;;;4893701;28;46373;-44
2023/12/21 14:04:58;;;;;;;0.10;0.10;;;22.30;33.90;;;;;;4925740;28;45301;-44
2023/12/21 14:07:24;;;;;;;0.00;0.00;;;22.30;34.00;;;;;;4914097;28;45822;-44
2023/12/21 14:09:49;;;;;;;0.10;0.05;;;22.30;34.00;;;;;;4902065;28;48853;-45
2023/12/21 14:12:15;;;;;;;0.17;0.10;;;22.30;34.10;;;;;;4911034;28;45804;-42
2023/12/21 14:14:40;;;;;;;0.10;0.10;;;22.30;34.20;;;;;;4919872;28;45283;-43
2023/12/21 14:17:06;;;;;;;0.05;0.05;;;22.30;34.20;;;;;;4891560;28;45725;-41
2023/12/21 14:19:33;;;;;;;0.10;0.10;;;22.30;34.30;;;;;;4905489;28;45063;-44
2023/12/21 14:21:58;;;;;;;0.10;0.08;;;22.30;34.40;;;;;;4912556;28;46271;-42
2023/12/21 14:24:24;;;;;;;0.40;0.10;;;22.30;34.60;;;;;;4922516;28;45500;-41
2023/12/21 14:26:50;;;;;;;0.50;0.10;;;22.30;34.50;;;;;;4907731;28;45026;-42
2023/12/21 14:29:16;;;;;;;0.10;0.10;;;22.30;34.50;;;;;;4923810;28;45405;-43
2023/12/21 14:31:43;;;;;;;0.60;0.10;;;22.30;34.50;;;;;;4905125;28;44766;-43
2023/12/21 14:34:08;;;;;;;0.40;0.10;;;22.30;34.50;;;;;;4901179;28;45705;-41
2023/12/21 14:36:34;;;;;;;0.40;0.10;;;22.30;34.60;;;;;;4906734;28;45218;-42
2023/12/21 14:38:59;;;;;;;0.70;0.10;;;22.30;34.60;;;;;;4912609;28;45494;-43
2023/12/21 14:41:25;;;;;;;0.10;0.10;;;22.30;34.60;;;;;;4919378;28;45367;-42
2023/12/21 14:43:50;;;;;;;0.10;0.10;;;22.40;34.70;;;;;;4919118;28;45306;-43
2023/12/21 14:46:16;;;;;;;0.30;0.10;;;22.40;34.70;;;;;;4901502;28;45509;-42
2023/12/21 14:48:41;;;;;;;0.20;0.10;;;22.40;34.80;;;;;;4900244;28;45587;-38
2023/12/21 14:51:08;;;;;;;0.50;0.10;;;22.40;34.70;;;;;;4889181;28;45254;-39
2023/12/21 14:53:34;;;;;;;0.20;0.10;;;22.40;34.80;;;;;;4914461;28;46750;-40
2023/12/21 14:55:59;;;;;;;0.10;0.10;;;22.40;34.80;;;;;;4918661;28;44971;-40
2023/12/21 14:58:25;;;;;;;0.53;0.10;;;22.40;34.70;;;;;;4893455;28;46676;-40
2023/12/21 15:00:51;;;;;;;0.10;0.10;;;22.50;35.40;;;;;;4893194;28;45459;-40
2023/12/21 15:03:16;;;;;;;0.50;0.10;;;22.50;34.70;;;;;;4928335;28;46119;-39
2023/12/21 15:05:42;;;;;;;0.25;0.20;;;22.50;34.70;;;;;;4894182;28;46008;-43
2023/12/21 15:08:07;;;;;;;0.17;0.10;;;22.50;34.70;;;;;;4918355;28;45102;-45
2023/12/21 15:10:33;;;;;;;0.30;0.17;;;22.50;34.70;;;;;;4910633;28;46135;-42
2023/12/21 15:12:59;;;;;;;0.60;0.20;;;22.60;34.80;;;;;;4908805;28;45908;-43
2023/12/21 15:15:29;;;;;;;0.10;0.10;;;22.60;34.80;;;;;;4905374;28;45735;-40
2023/12/21 15:17:54;;;;;;;0.20;0.10;;;22.60;34.80;;;;;;4899911;28;46849;-39
2023/12/21 15:20:20;;;;;;;0.20;0.10;;;22.60;34.80;;;;;;4924707;28;45335;-38
2023/12/21 15:22:45;;;;;;;0.10;0.10;;;22.60;34.70;;;;;;4928696;28;47046;-39
2023/12/21 15:25:11;;;;;;;0.10;0.10;;;22.70;34.80;;;;;;4915021;28;45436;-39
2023/12/21 15:27:36;;;;;;;0.10;0.10;;;22.60;34.70;;;;;;4933728;28;47207;-40
2023/12/21 15:30:06;;;;;;;0.10;0.10;;;22.70;34.70;;;;;;4928249;28;44831;-38
2023/12/21 15:32:32;;;;;;;0.03;0.03;;;22.70;34.80;;;;;;4893527;28;45741;-41
2023/12/21 15:34:58;;;;;;;0.20;0.10;;;22.70;34.80;;;;;;4912432;28;45410;-45
2023/12/21 15:37:24;;;;;;;0.50;0.10;;;22.80;34.80;;;;;;4919557;28;45614;-44
2023/12/21 15:39:50;;;;;;;0.10;0.10;;;22.80;35.40;;;;;;4931369;28;45206;-42
2023/12/21 15:42:15;;;;;;;0.20;0.10;;;22.80;34.80;;;;;;4925370;28;45754;-42
2023/12/21 15:44:41;;;;;;;0.60;0.10;;;22.80;34.80;;;;;;4935449;28;45187;-42
2023/12/21 15:47:06;;;;;;;0.27;0.10;;;22.80;34.70;;;;;;4900605;28;45620;-43
2023/12/21 15:49:32;;;;;;;1.23;0.10;;;22.90;34.70;;;;;;4922113;28;46004;-43
2023/12/21 15:51:57;;;;;;;0.20;0.20;;;22.80;34.70;;;;;;4906071;28;45672;-42
2023/12/21 15:54:23;;;;;;;0.10;0.10;;;22.90;34.70;;;;;;4934012;28;46170;-41
2023/12/21 15:56:48;;;;;;;0.20;0.20;;;22.90;34.70;;;;;;4922162;28;45770;-43
2023/12/21 15:59:14;;;;;;;0.40;0.20;;;22.90;34.70;;;;;;4936224;28;45194;-41
2023/12/21 16:01:40;;;;;;;0.10;0.07;;;22.90;34.70;;;;;;4913252;28;45275;-43
2023/12/21 16:04:05;;;;;;;0.10;0.10;;;22.90;34.70;;;;;;4926259;28;45649;-44
2023/12/21 16:06:32;;;;;;;0.20;0.10;;;23.00;34.80;;;;;;4900724;28;46258;-42
2023/12/21 16:08:58;;;;;;;0.10;0.10;;;23.00;34.70;;;;;;4924316;28;45478;-44
2023/12/21 16:11:23;;;;;;;0.20;0.10;;;23.10;34.70;;;;;;4949379;23;45135;-42
2023/12/21 16:13:49;;;;;;;0.10;0.10;;;23.10;34.70;;;;;;4984449;28;45548;-43
2023/12/21 16:16:14;;;;;;;0.00;0.00;;;23.10;34.60;;;;;;4975902;28;45152;-42
2023/12/21 16:18:40;;;;;;;0.03;0.03;;;23.10;34.60;;;;;;4969287;28;45430;-40
2023/12/21 16:21:05;;;;;;;0.20;0.10;;;23.20;34.60;;;;;;4970869;28;45178;-39
2023/12/21 16:23:31;;;;;;;0.10;0.10;;;23.20;34.60;;;;;;4991810;28;45524;-39
2023/12/21 16:26:00;;;;;;;0.13;0.00;;;23.20;34.60;;;;;;4969368;28;45052;-42
2023/12/21 16:28:25;;;;;;;0.10;0.10;;;23.30;34.60;;;;;;4974914;28;45336;-39
2023/12/21 16:30:51;;;;;;;0.30;0.20;;;23.30;34.50;;;;;;4975322;28;45217;-40
2023/12/21 16:33:17;;;;;;;0.20;0.10;;;23.30;34.50;;;;;;4977977;28;45914;-39
2023/12/21 16:35:43;;;;;;;0.10;0.10;;;23.30;34.40;;;;;;4963716;28;46430;-41
2023/12/21 16:38:10;;;;;;;0.10;0.10;;;23.30;34.40;;;;;;4966433;28;45433;-42
2023/12/21 16:40:36;;;;;;;0.30;0.15;;;23.40;34.40;;;;;;4974007;28;45001;-42
2023/12/21 16:43:01;;;;;;;0.45;0.10;;;23.40;34.40;;;;;;4992389;28;44768;-42
2023/12/21 16:45:27;;;;;;;0.20;0.20;;;23.50;34.40;;;;;;4981057;28;45677;-46
2023/12/21 16:47:54;;;;;;;0.35;0.20;;;23.50;34.30;;;;;;4966376;28;45543;-43
2023/12/21 16:50:20;;;;;;;0.60;0.30;;;23.50;34.30;;;;;;4967841;28;45201;-44
2023/12/21 16:52:46;;;;;;;0.35;0.20;;;23.50;34.30;;;;;;4966320;28;45186;-42
2023/12/21 16:55:11;;;;;;;0.20;0.20;;;23.50;34.20;;;;;;4982402;28;47066;-42
2023/12/21 16:57:38;;;;;;;0.20;0.20;;;23.60;34.20;;;;;;4992549;28;45684;-42
2023/12/21 17:00:08;;;;;;;0.50;0.30;;;23.60;34.20;;;;;;4992671;28;45252;-44
2023/12/21 17:02:34;;;;;;;0.40;0.30;;;23.60;34.20;;;;;;4951375;28;45315;-43
2023/12/21 17:05:00;;;;;;;0.32;0.32;;;23.70;34.20;;;;;;4975155;28;45599;-42
2023/12/21 17:07:26;;;;;;;0.40;0.40;;;23.70;34.20;;;;;;4969869;28;47482;-44
2023/12/21 17:09:52;;;;;;;1.00;0.38;;;23.70;34.10;;;;;;4973557;28;45281;-46
2023/12/21 17:12:17;;;;;;;0.45;0.35;;;23.80;34.10;;;;;;4944119;28;45598;-43
2023/12/21 17:14:43;;;;;;;0.25;0.20;;;23.70;34.10;;;;;;4997215;28;44943;-44
2023/12/21 17:17:08;;;;;;;0.30;0.30;;;23.80;34.10;;;;;;4959448;22;46759;-42
2023/12/21 17:19:34;;;;;;;1.05;0.30;;;23.80;34.00;;;;;;4952682;28;46050;-44
2023/12/21 17:22:01;;;;;;;0.47;0.30;;;23.80;34.00;;;;;;4954048;28;47129;-40
2023/12/21 17:24:26;;;;;;;0.30;0.20;;;23.90;34.00;;;;;;4936212;28;45572;-40
2023/12/21 17:26:53;;;;;;;0.30;0.30;;;23.90;33.90;;;;;;4957285;28;45244;-39
2023/12/21 17:29:19;;;;;;;0.50;0.30;;;24.00;33.90;;;;;;4942847;28;45258;-40
2023/12/21 17:31:44;;;;;;;0.20;0.20;;;24.00;33.90;;;;;;4951122;28;45568;-40
2023/12/21 17:34:10;;;;;;;0.25;0.20;;;24.00;33.80;;;;;;4961102;28;45237;-41
2023/12/21 17:36:36;;;;;;;0.28;0.20;;;24.00;33.80;;;;;;4941459;28;45917;-40
2023/12/21 17:39:02;;;;;;;0.27;0.27;;;24.00;33.80;;;;;;4951918;28;45293;-39
2023/12/21 17:41:27;;;;;;;0.23;0.20;;;24.00;33.70;;;;;;4938989;28;45656;-40
2023/12/21 17:43:53;;;;;;;0.50;0.13;;;24.00;33.70;;;;;;4956024;28;45314;-40
2023/12/21 17:46:21;;;;;;;0.47;0.30;;;24.10;33.70;;;;;;4934127;28;45970;-39
2023/12/21 17:48:48;;;;;;;0.20;0.20;;;24.10;33.70;;;;;;4946757;28;45285;-38
2023/12/21 17:51:13;;;;;;;0.30;0.10;;;24.10;33.60;;;;;;4953908;28;45552;-39
2023/12/21 17:53:39;;;;;;;0.70;0.20;;;24.10;33.60;;;;;;4943531;28;45243;-39
2023/12/21 17:56:04;;;;;;;0.55;0.20;;;24.10;33.60;;;;;;4953066;28;45386;-39
2023/12/21 17:58:30;;;;;;;0.20;0.15;;;24.10;33.50;;;;;;4961841;28;45625;-39
2023/12/21 18:00:56;;;;;;;0.20;0.20;;;24.10;33.50;;;;;;4950305;28;46050;-39
2023/12/21 18:03:22;;;;;;;0.50;0.20;;;24.10;33.50;;;;;;4957548;28;46614;-39
2023/12/21 18:05:50;;;;;;;0.30;0.20;;;24.20;33.40;;;;;;4957210;28;44661;-40
2023/12/21 18:08:17;;;;;;;0.50;0.28;;;24.20;33.40;;;;;;4925054;28;45643;-39
2023/12/21 18:10:42;;;;;;;0.85;0.38;;;24.20;33.40;;;;;;4940636;28;46016;-39
2023/12/21 18:13:08;;;;;;;0.40;0.10;;;24.20;33.40;;;;;;4947675;28;45909;-39
2023/12/21 18:15:34;;;;;;;0.55;0.22;;;24.20;33.30;;;;;;4951024;28;44712;-40
2023/12/21 18:18:00;;;;;;;0.28;0.20;;;24.20;33.30;;;;;;4957145;28;44909;-41
2023/12/21 18:20:26;;;;;;;0.40;0.20;;;24.20;33.90;;;;;;4950934;28;45762;-38
2023/12/21 18:22:51;;;;;;;0.57;0.20;;;24.20;33.30;;;;;;4944025;28;45787;-40
2023/12/21 18:25:17;;;;;;;0.82;0.40;;;24.30;33.30;;;;;;4957855;28;44710;-38
2023/12/21 18:27:43;;;;;;;0.30;0.20;;;24.20;33.20;;;;;;4928875;28;45381;-39
2023/12/21 18:30:09;;;;;;;1.30;0.43;;;24.30;33.30;;;;;;4954503;28;45279;-38
2023/12/21 18:32:36;;;;;;;0.57;0.40;;;24.30;33.20;;;;;;4923518;28;46581;-39
2023/12/21 18:35:03;;;;;;;0.55;0.38;;;24.30;33.20;;;;;;4959185;28;45571;-39
2023/12/21 18:37:28;;;;;;;0.70;0.40;;;24.30;33.20;;;;;;4921747;28;45229;-39
2023/12/21 18:39:54;;;;;;;0.30;0.30;;;24.30;33.20;;;;;;4962511;28;46207;-40
2023/12/21 18:42:20;;;;;;;0.70;0.30;;;24.30;33.20;;;;;;4954596;28;45522;-40
2023/12/21 18:44:45;;;;;;;0.53;0.30;;;24.30;33.10;;;;;;4968781;28;46709;-40
2023/12/21 18:47:11;;;;;;;0.90;0.20;;;24.30;33.10;;;;;;4935191;28;45329;-39
2023/12/21 18:49:37;;;;;;;0.40;0.30;;;24.30;33.10;;;;;;4968383;28;45678;-40
2023/12/21 18:52:03;;;;;;;0.38;0.20;;;24.30;33.10;;;;;;4949412;28;46347;-38
2023/12/21 18:54:29;;;;;;;1.10;0.40;;;24.30;33.10;;;;;;4964653;28;45381;-39
2023/12/21 18:56:55;;;;;;;0.35;0.20;;;24.30;33.10;;;;;;4960220;28;46544;-40
2023/12/21 18:59:22;;;;;;;1.30;0.50;;;24.30;33.00;;;;;;4961891;28;46140;-40
2023/12/21 19:01:47;;;;;;;0.70;0.30;;;24.30;33.00;;;;;;4950876;28;46284;-41
2023/12/21 19:04:15;;;;;;;1.58;0.38;;;24.30;33.00;;;;;;4951694;28;46098;-39